ESSD/BLE METAR and TAF weather

Enter ICAO airport designator
Station Type Date Time Source
ESSD METAR 2018/12/13 20:20 UTC NOAA

ESSD 132020Z AUTO VRB01KT 9999 OVC014/// M04/M05 Q1034


Station Type Date Time Source
ESSD Decoded METAR 2018/12/13 20:20 UTC NOAA

Borlange, Sweden (ESSD) 60-26N 015-31E 0M
Dec 13, 2018 - 03:20 PM EST / 2018.12.13 2020 UTC
Wind: Variable at 1 MPH (1 KT):0
Visibility: greater than 7 mile(s):0
Sky conditions: overcast
Temperature: 24 F (-4 C)
Dew Point: 23 F (-5 C)
Relative Humidity: 92%
Pressure (altimeter): 30.53 in. Hg (1034 hPa)
ob: ESSD 132020Z AUTO VRB01KT 9999 OVC014/// M04/M05 Q1034
cycle: 20

Station Type Date Time Source
ESSD TAF 2018/05/02 04:48 UTC NOAA

TAF TAF ESSD 020320Z 0204/0412 27008KT 9999 BKN019 PROB40 0204/0209 BKN006


Example: see airport list